Time;durP1;ratioP1;P1;durP2;ratioP2;P2;SDS_P1;SDS_P2;PMS_P1;PMS_P2;Temp;Humidity;BMP_temperature;BMP_pressure;BME280_temperature;BME280_humidity;BME280_pressure;Samples;Min_cycle;Max_cycle;Signal;HPM_P1;HPM_P2
2023/01/20 00:01:09;;;;;;;38.93;26.17;;;0.80;99.90;;;;;;4994029;28;20188;-67
2023/01/20 00:03:35;;;;;;;36.73;23.37;;;0.80;99.90;;;;;;4993588;28;20300;-67
2023/01/20 00:06:01;;;;;;;43.77;27.03;;;0.80;99.90;;;;;;5008869;28;20213;-67
2023/01/20 00:08:27;;;;;;;42.37;26.33;;;0.80;99.90;;;;;;5008796;28;20184;-67
2023/01/20 00:10:53;;;;;;;41.80;26.93;;;0.90;99.90;;;;;;4994088;28;20183;-67
2023/01/20 00:13:19;;;;;;;43.03;25.10;;;0.90;99.90;;;;;;4993940;28;20208;-67
2023/01/20 00:15:44;;;;;;;44.07;27.13;;;0.90;99.90;;;;;;4994019;28;20188;-67
2023/01/20 00:18:10;;;;;;;48.00;26.80;;;0.90;99.90;;;;;;4993804;28;20700;-67
2023/01/20 00:20:36;;;;;;;38.10;25.30;;;1.00;99.90;;;;;;5008759;28;20288;-67
2023/01/20 00:23:02;;;;;;;41.27;25.97;;;1.00;99.90;;;;;;4996011;28;20323;-67
2023/01/20 00:25:27;;;;;;;43.00;26.13;;;1.00;99.90;;;;;;4997200;28;20181;-67
2023/01/20 00:27:53;;;;;;;47.50;27.93;;;1.10;99.90;;;;;;4995837;28;20243;-67
2023/01/20 00:30:19;;;;;;;41.43;24.87;;;1.10;99.90;;;;;;4997251;28;20209;-67
2023/01/20 00:32:45;;;;;;;48.03;28.33;;;1.10;99.90;;;;;;4997123;28;20204;-67
2023/01/20 00:35:11;;;;;;;43.00;26.10;;;1.10;99.90;;;;;;4997175;28;20180;-67
2023/01/20 00:37:37;;;;;;;46.67;27.57;;;1.10;99.90;;;;;;4997252;28;20180;-66
2023/01/20 00:40:04;;;;;;;44.80;29.13;;;1.00;99.90;;;;;;4997537;28;20542;-67
2023/01/20 00:42:30;;;;;;;43.00;25.43;;;1.00;99.90;;;;;;5011811;28;20181;-67
2023/01/20 00:44:56;;;;;;;44.23;27.90;;;1.00;99.90;;;;;;4997115;28;20200;-67
2023/01/20 00:47:22;;;;;;;48.93;26.80;;;1.00;99.90;;;;;;4996791;28;20315;-67
2023/01/20 00:49:48;;;;;;;45.20;27.17;;;1.00;99.90;;;;;;4997156;28;20176;-67
2023/01/20 00:52:17;;;;;;;44.20;27.47;;;1.00;99.90;;;;;;4996841;28;20180;-67
2023/01/20 00:54:43;;;;;;;44.87;26.80;;;1.00;99.90;;;;;;5011827;28;20201;-67
2023/01/20 00:57:09;;;;;;;47.70;27.13;;;1.00;99.90;;;;;;5011807;28;20180;-67
2023/01/20 00:59:35;;;;;;;51.30;29.43;;;1.00;99.90;;;;;;4996634;28;20169;-66
2023/01/20 01:02:01;;;;;;;45.07;27.17;;;1.00;99.90;;;;;;4996659;28;20555;-67
2023/01/20 01:04:26;;;;;;;48.43;27.77;;;1.10;99.90;;;;;;5011372;28;20588;-67
2023/01/20 01:06:52;;;;;;;49.13;27.47;;;1.00;99.90;;;;;;4996532;28;20283;-67
2023/01/20 01:09:20;;;;;;;43.10;27.80;;;1.10;99.90;;;;;;4996579;28;20176;-67
2023/01/20 01:11:46;;;;;;;48.57;27.73;;;1.10;99.90;;;;;;4997713;28;20204;-67
2023/01/20 01:14:12;;;;;;;42.33;26.97;;;1.10;99.90;;;;;;4995992;28;20208;-66
2023/01/20 01:16:38;;;;;;;44.27;25.93;;;1.10;99.90;;;;;;4997353;28;20187;-67
2023/01/20 01:19:03;;;;;;;47.17;26.87;;;1.10;99.90;;;;;;5011893;28;20192;-66
2023/01/20 01:21:29;;;;;;;44.67;26.40;;;1.10;99.90;;;;;;4997013;28;20185;-66
2023/01/20 01:23:55;;;;;;;46.00;26.73;;;1.10;99.90;;;;;;4996041;28;20258;-67
2023/01/20 01:26:21;;;;;;;48.17;26.80;;;1.10;99.90;;;;;;4996310;28;20180;-66
2023/01/20 01:28:47;;;;;;;46.10;25.67;;;1.10;99.90;;;;;;4996152;28;20192;-66
2023/01/20 01:31:14;;;;;;;54.03;27.57;;;1.10;99.90;;;;;;5011080;28;20184;-67
2023/01/20 01:33:40;;;;;;;54.03;28.10;;;1.10;99.90;;;;;;4994890;28;20624;-67
2023/01/20 01:36:10;;;;;;;43.50;26.37;;;1.10;99.90;;;;;;4996211;28;20256;-67
2023/01/20 01:38:36;;;;;;;48.20;27.90;;;1.10;99.90;;;;;;4996255;28;20221;-67
2023/01/20 01:41:02;;;;;;;49.30;28.67;;;1.10;99.90;;;;;;4995846;28;20189;-66
2023/01/20 01:43:36;;;;;;;49.47;28.17;;;1.20;99.90;;;;;;4994301;28;20274;-66
2023/01/20 01:46:02;;;;;;;45.57;27.13;;;1.20;99.90;;;;;;4995834;28;20196;-67
2023/01/20 01:48:37;;;;;;;51.50;29.47;;;1.10;99.90;;;;;;4995766;28;20634;-66
2023/01/20 01:51:26;;;;;;;50.30;27.67;;;1.10;99.90;;;;;;4996257;28;20165;-66
2023/01/20 01:53:56;;;;;;;56.60;30.20;;;1.20;99.90;;;;;;5010456;28;20204;-66
2023/01/20 01:56:24;;;;;;;47.50;28.00;;;1.20;99.90;;;;;;4994410;28;20191;-66
2023/01/20 01:58:52;;;;;;;58.27;29.77;;;1.20;99.90;;;;;;4994265;28;20208;-66
2023/01/20 02:01:18;;;;;;;49.87;28.43;;;1.20;99.90;;;;;;4995462;28;20180;-67
2023/01/20 02:04:12;;;;;;;53.30;31.23;;;1.20;99.90;;;;;;4995077;28;20216;-67
2023/01/20 02:06:41;;;;;;;44.63;27.57;;;1.20;99.90;;;;;;4992618;28;20188;-66
2023/01/20 02:09:07;;;;;;;44.60;27.83;;;1.30;99.90;;;;;;4995594;28;20199;-67
2023/01/20 02:11:47;;;;;;;46.47;27.90;;;1.20;99.90;;;;;;4995234;28;20657;-66
2023/01/20 02:14:16;;;;;;;51.27;28.13;;;1.20;99.90;;;;;;4995381;28;20196;-66
2023/01/20 02:16:55;;;;;;;44.03;27.20;;;1.20;99.90;;;;;;4995240;28;20189;-67
2023/01/20 02:19:39;;;;;;;51.63;27.87;;;1.20;99.90;;;;;;4995077;28;20578;-67
2023/01/20 02:22:13;;;;;;;51.33;27.33;;;1.20;99.90;;;;;;4995470;28;20622;-67
2023/01/20 02:24:42;;;;;;;49.00;28.50;;;1.20;99.90;;;;;;4994903;28;20211;-67
2023/01/20 02:27:13;;;;;;;50.20;27.83;;;1.20;99.90;;;;;;4993751;28;20629;-66
2023/01/20 02:30:02;;;;;;;46.17;26.53;;;1.20;99.90;;;;;;4995038;28;20170;-67
2023/01/20 02:32:48;;;;;;;47.30;26.87;;;1.20;99.90;;;;;;4995050;28;20532;-67
2023/01/20 02:35:28;;;;;;;51.40;25.83;;;1.20;99.90;;;;;;4995419;28;20161;-67
2023/01/20 02:38:09;;;;;;;44.17;25.47;;;1.30;99.90;;;;;;4995077;28;20164;-67
2023/01/20 02:40:58;;;;;;;40.17;26.57;;;1.20;99.90;;;;;;4994772;28;20167;-65
2023/01/20 02:43:47;;;;;;;41.33;24.97;;;1.20;99.90;;;;;;4994361;28;20639;-65
2023/01/20 02:46:25;;;;;;;45.37;26.40;;;1.20;99.90;;;;;;5009635;28;20541;-65
2023/01/20 02:48:58;;;;;;;40.10;25.53;;;1.20;99.90;;;;;;4994475;28;20192;-65
2023/01/20 02:51:37;;;;;;;44.67;25.43;;;1.10;99.90;;;;;;4993296;28;20224;-65
2023/01/20 02:54:07;;;;;;;46.40;26.07;;;1.10;99.90;;;;;;4994921;28;20262;-65
2023/01/20 02:56:34;;;;;;;50.00;25.03;;;1.10;99.90;;;;;;4994664;28;20212;-65
2023/01/20 02:59:09;;;;;;;35.20;23.73;;;1.10;99.90;;;;;;4993173;28;20188;-65
2023/01/20 03:02:16;;;;;;;38.43;23.67;;;1.10;99.90;;;;;;4994661;28;20528;-65
2023/01/20 03:04:49;;;;;;;38.50;22.33;;;1.10;99.90;;;;;;4993706;28;20232;-65
2023/01/20 03:07:15;;;;;;;39.50;23.17;;;1.10;99.90;;;;;;4993068;28;20622;-65
2023/01/20 03:09:47;;;;;;;40.37;23.37;;;1.00;99.90;;;;;;4994241;28;20550;-65
2023/01/20 03:12:26;;;;;;;39.60;25.60;;;1.00;99.90;;;;;;4994245;28;20207;-65
2023/01/20 03:14:53;;;;;;;43.30;25.13;;;1.00;99.90;;;;;;4994403;28;20204;-65
2023/01/20 03:17:19;;;;;;;35.20;22.30;;;1.00;99.90;;;;;;4992865;28;20211;-65
2023/01/20 03:19:45;;;;;;;37.23;23.27;;;1.00;99.90;;;;;;4994073;28;20656;-65
2023/01/20 03:22:11;;;;;;;39.03;23.83;;;1.00;99.90;;;;;;4994382;28;20176;-65
2023/01/20 03:24:40;;;;;;;41.00;23.83;;;1.00;99.90;;;;;;4993943;28;20652;-65
2023/01/20 03:27:06;;;;;;;40.97;24.77;;;1.00;99.90;;;;;;4994292;28;20180;-65
2023/01/20 03:29:31;;;;;;;36.17;23.23;;;0.90;99.90;;;;;;4994072;28;20172;-65
2023/01/20 03:32:00;;;;;;;39.10;23.20;;;0.90;99.90;;;;;;4992747;28;20190;-65
2023/01/20 03:34:29;;;;;;;34.77;22.57;;;0.90;99.90;;;;;;4993945;28;20196;-65
2023/01/20 03:36:56;;;;;;;38.50;23.73;;;0.90;99.90;;;;;;4994061;28;20587;-65
2023/01/20 03:39:23;;;;;;;47.50;25.97;;;0.90;99.90;;;;;;4993943;28;20172;-65
2023/01/20 03:41:52;;;;;;;45.57;24.77;;;0.80;99.90;;;;;;4994203;28;20259;-65
2023/01/20 03:45:06;;;;;;;44.00;24.27;;;0.80;99.90;;;;;;4993702;28;20299;-65
2023/01/20 03:48:09;;;;;;;45.40;25.47;;;0.80;99.90;;;;;;4976875;28;20668;-65
2023/01/20 03:50:56;;;;;;;42.87;25.00;;;0.80;99.90;;;;;;4993844;28;20176;-65
2023/01/20 03:53:45;;;;;;;42.57;25.30;;;0.80;99.90;;;;;;4994057;28;20224;-65
2023/01/20 03:56:18;;;;;;;49.23;27.53;;;0.80;99.90;;;;;;4994867;28;20211;-65
2023/01/20 03:58:48;;;;;;;47.23;25.23;;;0.80;99.90;;;;;;4996566;28;20188;-65
2023/01/20 04:01:16;;;;;;;46.60;28.33;;;0.90;99.90;;;;;;4996489;28;20185;-65
2023/01/20 04:03:47;;;;;;;43.93;26.00;;;0.90;99.90;;;;;;4997323;28;20212;-65
2023/01/20 04:06:15;;;;;;;43.30;27.60;;;0.90;99.90;;;;;;4997647;28;20168;-65
2023/01/20 04:08:47;;;;;;;48.37;27.60;;;0.90;99.90;;;;;;4997760;28;20157;-67
2023/01/20 04:11:13;;;;;;;47.43;25.93;;;0.90;99.90;;;;;;4997588;28;20169;-68
2023/01/20 04:13:39;;;;;;;45.87;26.77;;;0.90;99.90;;;;;;4997797;28;20618;-67
2023/01/20 04:16:12;;;;;;;44.80;27.47;;;0.90;99.90;;;;;;4997745;28;20188;-66
2023/01/20 04:18:44;;;;;;;46.30;26.90;;;0.80;99.90;;;;;;4995962;28;20184;-67
2023/01/20 04:21:28;;;;;;;49.47;28.30;;;0.90;99.90;;;;;;4997894;28;20640;-65
2023/01/20 04:24:08;;;;;;;44.13;26.17;;;0.90;99.90;;;;;;4995941;28;20222;-66
2023/01/20 04:26:34;;;;;;;44.80;27.00;;;0.90;99.90;;;;;;4997739;28;20164;-66
2023/01/20 04:29:07;;;;;;;50.43;27.30;;;0.90;99.90;;;;;;4997488;28;20179;-67
2023/01/20 04:31:34;;;;;;;51.57;28.93;;;0.90;99.90;;;;;;4997736;28;20531;-66
2023/01/20 04:34:00;;;;;;;46.50;28.37;;;0.90;99.90;;;;;;4995748;28;20205;-66
2023/01/20 04:36:26;;;;;;;46.20;26.80;;;0.90;99.90;;;;;;4995894;28;20234;-67
2023/01/20 04:38:51;;;;;;;44.77;27.27;;;0.80;99.90;;;;;;4996934;28;20271;-67
2023/01/20 04:41:17;;;;;;;51.57;27.20;;;0.90;99.90;;;;;;4996949;28;20271;-67
2023/01/20 04:43:44;;;;;;;47.80;28.20;;;0.80;99.90;;;;;;5011714;28;20363;-67
2023/01/20 04:46:11;;;;;;;47.60;27.97;;;0.80;99.90;;;;;;5011829;28;20184;-67
2023/01/20 04:48:37;;;;;;;48.47;28.20;;;0.80;99.90;;;;;;4996792;28;20227;-67
2023/01/20 04:51:04;;;;;;;47.17;29.73;;;0.80;99.90;;;;;;4997019;28;20181;-67
2023/01/20 04:53:30;;;;;;;45.93;28.37;;;0.80;99.90;;;;;;4996713;28;20206;-66
2023/01/20 04:55:55;;;;;;;48.00;29.30;;;0.80;99.90;;;;;;4996655;28;20298;-66
2023/01/20 04:58:21;;;;;;;42.77;28.17;;;0.90;99.90;;;;;;4996890;28;20165;-66
2023/01/20 05:00:47;;;;;;;54.90;29.10;;;0.80;99.90;;;;;;4996546;28;20239;-66
2023/01/20 05:03:13;;;;;;;42.80;27.47;;;0.80;99.90;;;;;;4996155;28;20291;-66
2023/01/20 05:05:39;;;;;;;47.30;27.00;;;0.80;99.90;;;;;;5011642;28;20212;-67
2023/01/20 05:08:05;;;;;;;51.33;27.73;;;0.80;99.90;;;;;;4995348;28;20207;-67
2023/01/20 05:10:34;;;;;;;48.47;27.50;;;0.80;99.90;;;;;;4996514;28;20183;-67
2023/01/20 05:13:00;;;;;;;52.53;27.27;;;0.80;99.90;;;;;;4995178;28;20184;-67
2023/01/20 05:15:26;;;;;;;47.13;27.60;;;0.80;99.90;;;;;;4996568;28;20577;-67
2023/01/20 05:17:52;;;;;;;50.23;27.57;;;0.70;99.90;;;;;;4996223;28;20192;-67
2023/01/20 05:20:19;;;;;;;41.00;25.77;;;0.80;99.90;;;;;;4996312;28;20241;-67
2023/01/20 05:22:46;;;;;;;48.57;27.47;;;0.80;99.90;;;;;;4996088;28;20177;-67
2023/01/20 05:25:11;;;;;;;47.93;27.53;;;0.80;99.90;;;;;;4996491;28;20176;-67
2023/01/20 05:27:37;;;;;;;43.60;26.13;;;0.80;99.90;;;;;;4996734;28;20165;-67
2023/01/20 05:30:05;;;;;;;42.20;26.30;;;0.80;99.90;;;;;;4996587;28;20164;-67
2023/01/20 05:32:31;;;;;;;47.63;27.20;;;0.80;99.90;;;;;;4996071;28;20177;-67
2023/01/20 05:34:56;;;;;;;39.83;24.83;;;0.80;99.90;;;;;;4995935;28;20200;-67
2023/01/20 05:37:22;;;;;;;48.40;27.20;;;0.80;99.90;;;;;;4995933;28;20543;-66
2023/01/20 05:39:48;;;;;;;45.93;26.23;;;0.80;99.90;;;;;;4996473;28;20705;-66
2023/01/20 05:42:14;;;;;;;47.17;27.77;;;0.80;99.90;;;;;;4995775;28;20184;-66
2023/01/20 05:44:40;;;;;;;43.27;25.47;;;0.80;99.90;;;;;;4995408;28;20208;-66
2023/01/20 05:47:06;;;;;;;48.83;26.73;;;0.80;99.90;;;;;;4994297;28;20193;-66
2023/01/20 05:49:32;;;;;;;44.50;25.70;;;0.80;99.90;;;;;;4995687;28;20181;-66
2023/01/20 05:51:58;;;;;;;47.97;26.90;;;0.80;99.90;;;;;;4995757;28;20264;-66
2023/01/20 05:54:25;;;;;;;41.67;25.07;;;0.90;99.90;;;;;;4995370;28;20230;-66
2023/01/20 05:56:51;;;;;;;42.93;26.87;;;0.80;99.90;;;;;;4995492;28;20203;-66
2023/01/20 05:59:17;;;;;;;43.53;25.37;;;0.80;99.90;;;;;;4995318;28;20189;-66
2023/01/20 06:01:42;;;;;;;37.63;23.73;;;0.90;99.90;;;;;;4995384;28;20552;-66
2023/01/20 06:04:09;;;;;;;44.23;25.90;;;0.80;99.90;;;;;;4995031;28;20215;-66
2023/01/20 06:06:34;;;;;;;38.30;22.00;;;0.90;99.90;;;;;;4995172;28;20182;-66
2023/01/20 06:09:00;;;;;;;40.30;22.87;;;0.90;99.90;;;;;;4995179;28;20196;-66
2023/01/20 06:11:26;;;;;;;36.87;23.30;;;0.90;99.90;;;;;;4995165;28;20517;-66
2023/01/20 06:13:52;;;;;;;35.03;21.30;;;0.90;99.90;;;;;;4995318;28;20210;-66
2023/01/20 06:16:18;;;;;;;32.33;21.67;;;0.90;99.90;;;;;;4995001;28;20196;-66
2023/01/20 06:18:44;;;;;;;32.90;22.03;;;0.90;99.90;;;;;;5009565;28;20191;-66
2023/01/20 06:21:10;;;;;;;39.93;21.90;;;0.90;99.90;;;;;;4995280;28;20175;-66
2023/01/20 06:23:35;;;;;;;33.37;20.10;;;0.90;99.90;;;;;;4994959;28;20244;-66
2023/01/20 06:26:04;;;;;;;32.33;21.57;;;0.90;99.90;;;;;;5009926;28;20258;-66
2023/01/20 06:28:31;;;;;;;30.70;19.93;;;0.90;99.90;;;;;;4994792;28;20177;-66
2023/01/20 06:31:13;;;;;;;37.07;21.83;;;0.90;99.90;;;;;;4994778;28;20263;-66
2023/01/20 06:33:39;;;;;;;33.93;20.57;;;0.90;99.90;;;;;;4994911;28;20683;-65
2023/01/20 06:36:06;;;;;;;29.87;20.13;;;0.90;99.90;;;;;;4994701;28;20184;-65
2023/01/20 06:38:33;;;;;;;34.43;21.07;;;0.90;99.90;;;;;;4994697;28;20177;-65
2023/01/20 06:41:04;;;;;;;35.10;20.83;;;0.90;99.90;;;;;;4994789;28;20215;-65
2023/01/20 06:43:38;;;;;;;27.83;19.67;;;0.90;99.90;;;;;;4994439;28;20216;-65
2023/01/20 06:46:06;;;;;;;33.47;21.43;;;0.90;99.90;;;;;;4994741;28;20184;-65
2023/01/20 06:48:32;;;;;;;30.67;19.60;;;0.90;99.90;;;;;;4994327;28;20233;-65
2023/01/20 06:51:07;;;;;;;27.13;19.07;;;0.90;99.90;;;;;;4994962;28;20172;-67
2023/01/20 06:53:33;;;;;;;30.90;19.40;;;0.90;99.90;;;;;;4994678;28;20200;-67
2023/01/20 06:56:00;;;;;;;27.57;19.20;;;0.90;99.90;;;;;;4994692;28;20188;-67
2023/01/20 06:58:28;;;;;;;27.87;19.10;;;0.90;99.90;;;;;;4994953;28;20223;-66
2023/01/20 07:00:55;;;;;;;33.57;20.13;;;0.90;99.90;;;;;;4994631;28;20188;-67
2023/01/20 07:03:21;;;;;;;32.00;19.80;;;0.90;99.90;;;;;;4994396;28;20212;-66
2023/01/20 07:06:32;;;;;;;30.13;19.73;;;0.90;99.90;;;;;;5009375;28;20195;-67
2023/01/20 07:08:59;;;;;;;30.93;19.90;;;0.90;99.90;;;;;;4974834;28;20251;-64
2023/01/20 07:11:25;;;;;;;30.57;19.43;;;0.90;99.90;;;;;;4994871;28;20590;-64
2023/01/20 07:13:51;;;;;;;26.17;18.50;;;0.80;99.90;;;;;;4994769;28;20200;-65
2023/01/20 07:16:17;;;;;;;32.20;18.70;;;0.80;99.90;;;;;;4994328;28;20218;-64
2023/01/20 07:18:46;;;;;;;28.90;18.33;;;0.80;99.90;;;;;;4994132;28;20257;-65
2023/01/20 07:21:12;;;;;;;31.03;19.37;;;0.90;99.90;;;;;;4994164;28;20187;-65
2023/01/20 07:23:37;;;;;;;31.80;17.40;;;0.80;99.90;;;;;;4993968;28;20592;-65
2023/01/20 07:26:12;;;;;;;33.23;18.63;;;0.90;99.90;;;;;;4994056;28;20191;-65
2023/01/20 07:28:38;;;;;;;30.63;17.90;;;0.90;99.90;;;;;;4994252;28;20160;-65
2023/01/20 07:31:09;;;;;;;29.77;18.97;;;0.90;99.90;;;;;;4993431;28;20272;-65
2023/01/20 07:33:35;;;;;;;23.07;16.87;;;0.80;99.90;;;;;;4994048;28;20720;-65
2023/01/20 07:36:02;;;;;;;27.03;18.20;;;0.80;99.90;;;;;;4994181;28;20177;-65
2023/01/20 07:38:28;;;;;;;25.47;16.97;;;0.80;99.90;;;;;;4993979;28;20220;-65
2023/01/20 07:41:03;;;;;;;25.00;17.13;;;0.80;99.90;;;;;;5008917;28;20184;-65
2023/01/20 07:43:29;;;;;;;24.77;16.73;;;0.90;99.90;;;;;;4993902;28;20251;-65
2023/01/20 07:45:56;;;;;;;28.30;16.80;;;0.90;99.90;;;;;;4992523;28;20665;-65
2023/01/20 07:48:23;;;;;;;27.30;18.23;;;0.80;99.90;;;;;;4993799;28;20165;-64
2023/01/20 07:50:56;;;;;;;28.67;18.53;;;0.80;99.90;;;;;;4993818;28;20180;-65
2023/01/20 07:53:22;;;;;;;30.30;19.60;;;0.90;99.90;;;;;;4992363;28;20243;-63
2023/01/20 07:55:48;;;;;;;32.47;19.70;;;0.90;99.90;;;;;;4993913;28;20184;-63
2023/01/20 07:58:13;;;;;;;37.03;19.80;;;0.90;99.90;;;;;;4993623;28;20204;-63
2023/01/20 08:00:39;;;;;;;29.70;19.33;;;0.90;99.90;;;;;;4992301;28;20184;-63
2023/01/20 08:03:05;;;;;;;31.20;18.80;;;0.90;99.90;;;;;;4992046;28;20208;-63
2023/01/20 08:05:31;;;;;;;31.20;20.87;;;0.90;99.90;;;;;;4993628;28;20177;-63
2023/01/20 08:07:57;;;;;;;32.03;20.87;;;1.00;99.90;;;;;;4993840;28;20209;-63
2023/01/20 08:10:23;;;;;;;33.43;20.40;;;0.90;99.90;;;;;;4993808;28;20261;-63
2023/01/20 08:12:48;;;;;;;34.03;21.47;;;1.00;99.90;;;;;;4993449;28;20235;-63
2023/01/20 08:15:14;;;;;;;33.03;22.03;;;1.00;99.90;;;;;;4993861;28;20188;-63
2023/01/20 08:17:40;;;;;;;30.27;20.20;;;1.00;99.90;;;;;;4993518;28;20247;-63
2023/01/20 08:20:06;;;;;;;32.10;21.10;;;1.00;99.90;;;;;;4993401;28;20188;-63
2023/01/20 08:22:33;;;;;;;32.87;20.27;;;1.10;99.90;;;;;;4993390;28;20230;-63
2023/01/20 08:24:59;;;;;;;32.67;21.30;;;1.10;99.90;;;;;;5008392;28;20217;-63
2023/01/20 08:27:25;;;;;;;30.90;20.60;;;1.10;99.90;;;;;;4993390;28;20712;-63
2023/01/20 08:29:53;;;;;;;31.93;20.33;;;1.10;99.90;;;;;;4993439;28;20259;-63
2023/01/20 08:32:19;;;;;;;35.07;21.03;;;1.20;99.90;;;;;;4993325;28;20172;-63
2023/01/20 08:34:45;;;;;;;32.90;20.57;;;1.20;99.90;;;;;;5008259;28;20208;-63
2023/01/20 08:37:10;;;;;;;31.17;20.87;;;1.20;99.90;;;;;;4993391;28;20605;-63
2023/01/20 08:39:36;;;;;;;37.63;22.77;;;1.20;99.90;;;;;;4993375;28;20187;-64
2023/01/20 08:42:02;;;;;;;31.70;21.83;;;1.30;99.90;;;;;;4994003;28;20180;-63
2023/01/20 08:44:28;;;;;;;35.47;20.87;;;1.30;99.90;;;;;;4996502;28;20212;-63
2023/01/20 08:46:58;;;;;;;37.67;24.17;;;1.30;99.90;;;;;;4996683;28;20181;-63
2023/01/20 08:49:24;;;;;;;32.93;20.93;;;1.20;99.90;;;;;;4996727;28;20177;-63
2023/01/20 08:51:50;;;;;;;35.83;21.50;;;1.20;99.90;;;;;;4996658;28;20228;-63
2023/01/20 08:54:16;;;;;;;35.27;23.13;;;1.20;99.90;;;;;;4996528;28;20197;-63
2023/01/20 08:56:42;;;;;;;35.00;22.43;;;1.20;99.90;;;;;;4996804;28;20180;-63
2023/01/20 08:59:09;;;;;;;31.63;21.10;;;1.20;99.90;;;;;;4996751;28;20188;-63
2023/01/20 09:01:36;;;;;;;31.27;20.97;;;1.20;99.90;;;;;;4996492;28;20551;-63
2023/01/20 09:04:04;;;;;;;28.23;20.20;;;1.20;99.90;;;;;;4996200;28;20239;-63
2023/01/20 09:06:31;;;;;;;31.13;19.90;;;1.20;99.90;;;;;;4996393;28;20176;-63
2023/01/20 09:08:56;;;;;;;33.60;20.50;;;1.30;99.90;;;;;;4996197;28;20238;-63
2023/01/20 09:11:26;;;;;;;31.10;21.33;;;1.30;99.90;;;;;;4996280;28;20653;-63
2023/01/20 09:13:52;;;;;;;29.40;20.00;;;1.30;99.90;;;;;;4996205;28;20200;-63
2023/01/20 09:16:18;;;;;;;26.90;18.87;;;1.30;99.90;;;;;;4996122;28;20238;-63
2023/01/20 09:18:44;;;;;;;33.57;20.00;;;1.30;99.90;;;;;;4994763;28;20192;-63
2023/01/20 09:21:10;;;;;;;29.73;19.90;;;1.30;99.90;;;;;;4996641;28;20184;-63
2023/01/20 09:23:37;;;;;;;30.73;19.27;;;1.30;99.90;;;;;;4996154;28;20200;-63
2023/01/20 09:26:05;;;;;;;30.13;19.00;;;1.30;99.90;;;;;;5011089;28;20184;-63
2023/01/20 09:28:32;;;;;;;23.87;17.70;;;1.30;99.90;;;;;;4994664;28;20183;-63
2023/01/20 09:31:04;;;;;;;27.87;20.47;;;1.40;99.90;;;;;;4996245;28;20610;-63
2023/01/20 09:33:30;;;;;;;27.60;17.93;;;1.40;99.90;;;;;;4995698;28;20304;-63
2023/01/20 09:35:57;;;;;;;28.97;18.20;;;1.40;99.90;;;;;;4995836;28;20550;-63
2023/01/20 09:44:23;;;;;;;21.97;16.10;;;1.50;99.90;;;;;;4995623;28;20711;-65
2023/01/20 09:47:18;;;;;;;21.40;15.83;;;1.50;99.90;;;;;;4995699;28;20203;-65
2023/01/20 09:55:32;;;;;;;23.63;15.23;;;1.70;99.90;;;;;;4995121;28;20167;-65
2023/01/20 09:58:31;;;;;;;20.57;15.43;;;1.70;99.90;;;;;;4995467;28;20192;-65
2023/01/20 10:01:03;;;;;;;19.63;14.47;;;1.80;99.90;;;;;;4968502;28;20197;-65
2023/01/20 10:03:46;;;;;;;19.47;14.87;;;1.90;99.90;;;;;;4995309;28;20665;-65
2023/01/20 10:06:23;;;;;;;21.00;15.23;;;1.90;99.90;;;;;;4995624;28;20248;-65
2023/01/20 10:09:01;;;;;;;21.07;15.20;;;2.00;99.90;;;;;;4995575;28;20243;-65
2023/01/20 10:11:32;;;;;;;21.97;15.13;;;2.00;99.90;;;;;;4995679;28;20640;-65
2023/01/20 10:14:14;;;;;;;19.60;14.80;;;2.10;99.90;;;;;;4995247;28;20200;-64
2023/01/20 10:16:44;;;;;;;17.17;14.20;;;2.20;99.90;;;;;;4995205;28;20275;-64
2023/01/20 10:19:20;;;;;;;18.93;14.17;;;2.30;99.90;;;;;;4995195;28;20180;-64
2023/01/20 10:22:18;;;;;;;16.60;13.57;;;2.40;99.90;;;;;;4995373;28;20528;-65
2023/01/20 10:25:16;;;;;;;16.70;13.57;;;2.50;99.90;;;;;;4979615;28;20228;-65
2023/01/20 10:28:01;;;;;;;16.50;13.77;;;2.50;99.90;;;;;;4995211;28;20169;-64
2023/01/20 10:30:31;;;;;;;19.87;14.73;;;2.60;99.90;;;;;;4993687;28;20240;-64
2023/01/20 10:33:12;;;;;;;17.50;13.70;;;2.50;99.90;;;;;;4993882;28;20225;-64
2023/01/20 10:35:47;;;;;;;19.70;14.47;;;2.60;99.90;;;;;;4994658;28;20164;-65
2023/01/20 10:38:32;;;;;;;18.67;13.40;;;2.60;99.90;;;;;;4994794;28;20668;-64
2023/01/20 10:41:02;;;;;;;15.47;12.93;;;2.70;99.90;;;;;;4994634;28;20184;-64
2023/01/20 10:43:27;;;;;;;14.50;13.00;;;2.90;99.90;;;;;;4993045;28;20228;-64
2023/01/20 10:46:02;;;;;;;17.60;12.90;;;2.90;99.90;;;;;;4994708;28;20188;-65
2023/01/20 10:48:51;;;;;;;18.27;12.77;;;3.20;99.90;;;;;;4994550;28;20175;-65
2023/01/20 10:51:17;;;;;;;15.50;12.67;;;3.20;99.90;;;;;;4994815;28;20179;-65
2023/01/20 10:53:43;;;;;;;13.23;10.83;;;3.30;99.90;;;;;;4994517;28;20283;-65
2023/01/20 10:56:24;;;;;;;12.37;10.83;;;3.20;99.90;;;;;;4994437;28;20523;-65
2023/01/20 10:58:50;;;;;;;15.60;11.63;;;3.10;99.90;;;;;;4994970;28;20188;-65
2023/01/20 11:01:20;;;;;;;19.00;11.90;;;2.90;99.90;;;;;;4994692;28;20211;-64
2023/01/20 11:03:48;;;;;;;12.87;11.23;;;2.80;99.90;;;;;;4994316;28;20212;-64
2023/01/20 11:06:24;;;;;;;12.40;10.37;;;2.70;99.90;;;;;;4994179;28;20184;-64
2023/01/20 11:08:49;;;;;;;11.93;10.47;;;2.70;99.90;;;;;;4994486;28;20161;-64
2023/01/20 11:11:23;;;;;;;13.77;10.73;;;2.70;99.90;;;;;;4992928;28;20181;-64
2023/01/20 11:13:52;;;;;;;11.53;10.33;;;2.60;99.90;;;;;;4994481;28;20551;-64
2023/01/20 11:16:25;;;;;;;11.20;9.73;;;2.80;99.90;;;;;;4994110;28;20188;-64
2023/01/20 11:19:02;;;;;;;12.13;10.00;;;3.00;99.90;;;;;;5009258;28;20181;-64
2023/01/20 11:21:30;;;;;;;13.80;10.07;;;3.20;99.90;;;;;;4994116;28;20208;-64
2023/01/20 11:23:57;;;;;;;10.40;9.30;;;3.30;99.90;;;;;;4994369;28;20208;-65
2023/01/20 11:26:35;;;;;;;10.97;9.40;;;3.40;99.90;;;;;;4994382;28;20184;-65
2023/01/20 11:29:09;;;;;;;10.97;9.73;;;3.40;99.90;;;;;;4994389;28;20169;-64
2023/01/20 11:31:42;;;;;;;10.47;9.47;;;3.40;99.90;;;;;;4993110;28;20546;-66
2023/01/20 11:34:27;;;;;;;10.43;9.30;;;3.50;99.90;;;;;;4994245;28;20200;-65
2023/01/20 11:37:05;;;;;;;14.10;9.40;;;3.60;99.90;;;;;;4994324;28;20192;-62
2023/01/20 11:39:48;;;;;;;10.13;9.23;;;3.90;99.90;;;;;;4993904;28;20260;-62
2023/01/20 11:42:23;;;;;;;9.90;8.93;;;4.30;99.90;;;;;;4992968;28;20172;-65
2023/01/20 11:44:50;;;;;;;9.30;8.17;;;4.60;99.90;;;;;;4993701;28;20207;-65
2023/01/20 11:47:31;;;;;;;10.97;8.73;;;4.90;99.90;;;;;;4995005;28;20563;-66
2023/01/20 11:50:03;;;;;;;11.57;9.73;;;4.90;99.90;;;;;;5008965;28;20393;-65
2023/01/20 11:52:34;;;;;;;9.47;8.47;;;4.70;99.90;;;;;;4993884;28;20177;-65
2023/01/20 11:55:13;;;;;;;10.17;9.17;;;4.70;99.90;;;;;;4994054;28;20228;-65
2023/01/20 11:57:44;;;;;;;9.30;8.37;;;4.50;99.90;;;;;;4993760;28;20169;-64
2023/01/20 12:00:28;;;;;;;9.70;8.47;;;4.60;99.90;;;;;;5008838;28;20630;-65
2023/01/20 12:03:00;;;;;;;9.27;8.37;;;4.50;99.90;;;;;;4992305;28;20192;-65
2023/01/20 12:05:37;;;;;;;9.37;8.47;;;4.30;99.90;;;;;;4993565;28;20180;-64
2023/01/20 12:08:07;;;;;;;9.87;9.00;;;4.10;99.90;;;;;;4993885;28;20161;-65
2023/01/20 12:10:36;;;;;;;9.63;8.73;;;3.90;99.90;;;;;;5008674;28;20180;-65
2023/01/20 12:13:21;;;;;;;11.27;8.73;;;3.80;99.90;;;;;;4993647;28;20175;-65
2023/01/20 12:16:00;;;;;;;9.10;8.20;;;3.80;99.90;;;;;;4992259;28;20184;-65
2023/01/20 12:18:41;;;;;;;14.57;9.20;;;3.90;99.90;;;;;;4996833;28;20547;-65
2023/01/20 12:21:17;;;;;;;10.07;9.00;;;3.90;99.90;;;;;;4997649;28;20200;-65
2023/01/20 12:23:46;;;;;;;15.27;9.50;;;4.00;99.90;;;;;;4997448;28;20207;-64
2023/01/20 12:26:14;;;;;;;9.60;8.60;;;4.00;99.90;;;;;;4997308;28;20664;-65
2023/01/20 12:28:58;;;;;;;9.20;8.33;;;4.20;99.90;;;;;;5012164;28;20191;-65
2023/01/20 12:31:24;;;;;;;9.53;8.60;;;4.40;99.90;;;;;;4997146;28;20173;-65
2023/01/20 12:34:04;;;;;;;9.93;8.33;;;4.30;99.90;;;;;;4996809;28;20259;-65
2023/01/20 12:36:48;;;;;;;9.60;8.57;;;4.20;99.90;;;;;;4997323;28;20169;-65
2023/01/20 12:39:36;;;;;;;10.47;9.00;;;3.90;99.90;;;;;;4995794;28;20180;-65
2023/01/20 12:42:11;;;;;;;13.17;8.67;;;3.60;99.90;;;;;;4996822;28;20177;-65
2023/01/20 12:44:55;;;;;;;9.87;8.30;;;3.50;99.90;;;;;;4996673;28;20215;-65
2023/01/20 12:47:32;;;;;;;10.40;9.23;;;3.40;99.90;;;;;;4997786;28;20623;-65
2023/01/20 12:50:52;;;;;;;11.17;8.90;;;3.20;99.90;;;;;;4996733;28;20572;-65
2023/01/20 12:53:27;;;;;;;11.57;9.07;;;3.20;99.90;;;;;;4936676;29;20238;-65
2023/01/20 12:56:22;;;;;;;15.37;10.23;;;3.20;99.90;;;;;;4995695;28;20231;-65
2023/01/20 12:59:17;;;;;;;9.67;8.57;;;3.20;99.90;;;;;;4996940;28;20204;-65
2023/01/20 13:02:06;;;;;;;10.47;8.50;;;3.30;99.90;;;;;;4996663;28;20176;-65
2023/01/20 13:04:53;;;;;;;9.80;8.80;;;3.30;99.90;;;;;;4996741;28;20232;-65
2023/01/20 13:07:44;;;;;;;10.23;9.13;;;3.30;99.90;;;;;;4995501;28;20176;-65
2023/01/20 13:10:28;;;;;;;10.50;9.43;;;3.30;99.90;;;;;;4997256;28;20168;-65